Tiempo atmosférico en la estación meteorológica de Fregenal De La Sierra, Badajoz (586 m.)



Fecha
DESCASC
Temp. máxima en grados centígrados (hora)
DESCASC
Temp. mínima en grados centígrados (hora)
DESCASC
Temp. media en grados centígrados
DESCASC
Racha de viento máxima en m/sg (hora)
DESCASC
Velocidad máxima media en intervalos de 10 minutos(hora)
DESCASC
Precipitaciones diarias en mm
DESCASC
Precipitaciones de 00:00 a 06:00 en mm
DESCASC
Precipitaciones de 06:00 a 12:00 en mm
DESCASC
Precipitaciones de 12:00 a 18:00 en mm
DESCASC
Precipitaciones de 18:00 a 24:00 en mm
DESCASC
22-04-2019 19.4 (16:40) 5.6 (06:10) 12.5 11.39 (15:40) 5.28 (14:30) 0 0 0 0 0
21-04-2019 17.6 (17:20) 6.8 (07:00) 12.2 10.28 (12:00) 5.28 (12:00) 0 0 0 0 0
20-04-2019 14 (17:00) 6.9 (07:20) 10.5 17.22 (17:10) 8.61 (18:00) 1 0.2 0.6 0 0.2
19-04-2019 14.9 (18:20) 7.3 (03:50) 11.1 7.5 (14:20) 4.44 (14:30) 6 0.2 3.4 0 2.4
18-04-2019 14.6 (15:50) 6.9 (00:00) 10.8 9.17 (17:30) 4.44 (17:30) 6 0.2 0 0 5.8
17-04-2019 17.3 (15:30) 9 (00:00) 13.1 12.5 (14:40) 6.11 (15:00) 3.6 0 0 2.6 1
16-04-2019 21.1 (17:20) 3.6 (00:00) 12.4 8.61 (17:50) 4.44 (19:00) 0 0 0 0 0
15-04-2019 18.2 (14:50) 9.8 (00:00) 14 8.61 (17:20) 3.89 (15:10) 0 0 0 0 0
14-04-2019 22.9 (17:10) 10.9 (00:00) 16.9 5 (14:00) 2.22 (01:20) 0 0 0 0 0
13-04-2019 20.9 (16:40) 3.9 (00:00) 12.4 6.94 (16:00) 3.61 (18:50) 0 0 0 0 0
12-04-2019 18.9 (17:20) 2.4 (00:00) 10.6 7.78 (14:20) 3.61 (12:20) 0 0 0 0 0
11-04-2019 16.9 (17:10) 2.9 (00:00) 9.9 7.78 (17:20) 3.89 (17:20) 0 0 0 0 0
10-04-2019 14.4 (15:40) 6.7 (00:00) 10.5 10.83 (17:40) 6.11 (17:40) 0 0 0 0 0
09-04-2019 13.2 (17:10) 6.8 (00:00) 10 10.56 (13:40) 5 (13:40) 4.8 0 0.2 4.4 0.2
08-04-2019 14.8 (16:00) 7.8 (00:00) 11.3 11.11 (17:20) 4.17 (21:00) 8.8 2.8 6 0 0
07-04-2019 12.8 (17:10) 6.4 (00:00) 9.6 9.17 (23:59) 4.17 (23:59) 9.4 0.8 0 1.2 7.4
06-04-2019 11.7 (16:50) 5.1 (00:00) 8.4 15.56 (16:00) 6.11 (17:00) 7.4 0.6 4 0.6 2.2
05-04-2019 11.2 (16:40) 4.6 (00:00) 7.9 13.89 (17:50) 5.28 (17:40) 13.2 7.4 3.8 0.2 1.8
04-04-2019 14.4 (17:10) 2.3 (00:00) 8.3 8.06 (10:10) 5 (10:40) 0 0 0 0 0
03-04-2019 15.1 (17:30) 2.9 (00:00) 9 9.17 (15:50) 4.44 (17:40) 0 0 0 0 0
02-04-2019 18.5 (17:40) 4.1 (00:00) 11.3 5.56 (20:10) 3.33 (17:50) 0 0 0 0 0
01-04-2019 17.1 (14:00) 7.5 (00:00) 12.3 9.17 (18:00) 5.56 (18:10) 6.2 0.2 0 5.6 0.4
31-03-2019 16.9 (13:50) 6.9 (00:00) 11.9 7.22 (17:40) 3.61 (17:40) 2.6 0.2 0 0.4 2
30-03-2019 20.4 (16:00) 4.7 (00:00) 12.5 8.33 (18:10) 3.33 (21:20) 4 0 0 0 4
29-03-2019 20.2 (17:40) 4.1 (00:00) 12.2 8.06 (10:10) 5 (10:10) 0 0 0 0 0
28-03-2019 18.3 (15:00) 0.9 (00:00) 9.6 9.72 (12:20) 5.83 (12:10) 0 0 0 0 0
27-03-2019 19.3 (15:20) 5.3 (00:00) 12.3 10.83 (15:00) 5.56 (15:40) 0 0 0 0 0
26-03-2019 22.3 (14:30) 7 (00:00) 14.6 9.17 (13:00) 5 (14:40) 0 0 0 0 0
25-03-2019 21.4 (16:20) 4.1 (00:00) 12.7 10.83 (15:40) 5.28 (17:10) 0 0 0 0 0

Gráficas

Temp. máximas Temp. mínimas Temp. medias Precipitaciones Rachas de viento máximas Velocidades máximas media en intervalos de 10 minutos

Datos horarios

Fecha y hora oficial Temperatura (ºC) Velocidad del viento (km/h) Dirección del viento Racha (km/h) Dirección de racha Precipitación (mm) Presión (hPa) Tendencia (hPa) Humedad (%)
2019-04-23 23:00:00 5.9 6 Oeste 22 Sudoeste 0 -- -- 90
2019-04-23 22:00:00 6 5 Oeste 17 Oeste 0 -- -- 91
2019-04-23 21:00:00 5.4 4 Sudoeste 31 Noroeste 1.4 -- -- 90
2019-04-23 20:00:00 6.2 15 Noroeste 40 Noroeste 1.6 -- -- 88
2019-04-23 19:00:00 7.6 12 Noroeste 31 Oeste 0.6 -- -- 80
2019-04-23 18:00:00 10.4 12 Oeste 29 Oeste 0 -- -- 67
2019-04-23 17:00:00 9.6 12 Oeste 32 Oeste 0 -- -- 70
2019-04-23 16:00:00 9.5 9 Oeste 30 Oeste 0 -- -- 78
2019-04-23 15:00:00 6.2 9 Noroeste 42 Oeste 0.8 -- -- 90
2019-04-23 14:00:00 7.7 11 Noroeste 28 Oeste 0.4 -- -- 88
2019-04-23 13:00:00 5.8 12 Oeste 35 Oeste 1 -- -- 90
2019-04-23 12:00:00 7.5 8 Noroeste 29 Noroeste 1.6 -- -- 90
2019-04-23 11:00:00 8.3 10 Noroeste 28 Noroeste 0 -- -- 82
2019-04-23 10:00:00 6.9 11 Noroeste 24 Oeste 0 -- -- 91
2019-04-23 09:00:00 6.1 6 Noroeste 17 Noroeste 0 -- -- 95
2019-04-23 08:00:00 6 7 Noroeste 25 Noroeste 0 -- -- 94
2019-04-23 07:00:00 6.4 8 Noroeste 26 Noroeste 0 -- -- 94
2019-04-23 06:00:00 7.1 9 Noroeste 22 Noroeste 0 -- -- 96
2019-04-23 05:00:00 7.1 10 Noroeste 28 Noroeste 3 -- -- 95
2019-04-23 04:00:00 7.7 17 Noroeste 38 Noroeste 2 -- -- 95
2019-04-23 03:00:00 9.9 7 Sudoeste 21 Sur 1.2 -- -- 94
2019-04-23 02:00:00 10.2 9 Sudoeste 21 Sudoeste 0 -- -- 89
2019-04-23 01:00:00 10.6 8 Sudoeste 26 Oeste 0 -- -- 89
2019-04-23 00:00:00 11.1 8 Sudoeste 25 Oeste 0 -- -- 88
2019-04-22 23:00:00 11.8 10 Oeste 28 Oeste 0 -- -- 84
2019-04-22 22:00:00 13.5 8 Oeste 21 Oeste 0 -- -- 72
2019-04-22 21:00:00 14.8 7 Oeste 24 Oeste 0 -- -- 60
2019-04-22 20:00:00 16 9 Oeste 32 Oeste 0 -- -- 51
2019-04-22 19:00:00 17.8 14 Oeste 35 Noroeste 0 -- -- 43
2019-04-22 18:00:00 19 13 Oeste 32 Noroeste 0 -- -- 45
2019-04-22 17:00:00 19.3 13 Oeste 32 Oeste 0 -- -- 46
2019-04-22 16:00:00 18.6 12 Noroeste 41 Sudoeste 0 -- -- 48
2019-04-22 15:00:00 18.9 14 Noroeste 34 Noroeste 0 -- -- 47
2019-04-22 14:00:00 18.2 10 Noroeste 30 Noroeste 0 -- -- 49
2019-04-22 13:00:00 17.4 11 Oeste 22 Noroeste 0 -- -- 58
2019-04-22 12:00:00 16.5 10 Noroeste 23 Oeste 0 -- -- 61
2019-04-22 11:00:00 15.7 9 Oeste 19 Oeste 0 -- -- 62
2019-04-22 10:00:00 13.1 6 Oeste 17 Oeste 0 -- -- 72
2019-04-22 09:00:00 7.6 0 Calma 2 Norte 0 -- -- 97
2019-04-22 08:00:00 5.9 0 Calma 3 Norte 0 -- -- 96
2019-04-22 07:00:00 5.9 0 Calma 2 Sur 0 -- -- 94
2019-04-22 06:00:00 5.7 2 Noroeste 4 Norte 0 -- -- 93
2019-04-22 05:00:00 6.3 2 Norte 4 Norte 0 -- -- 92
2019-04-22 04:00:00 7 0 Calma 4 Norte 0 -- -- 89
2019-04-22 03:00:00 8.6 4 Oeste 5 Oeste 0 -- -- 88
2019-04-22 02:00:00 9 0 Calma 3 Sudoeste 0 -- -- 94
2019-04-22 01:00:00 8.7 0 Calma 4 Norte 0 -- -- 93
2019-04-22 00:00:00 8.4 0 Calma 2 Noroeste 0 -- -- 92
2019-04-21 23:00:00 9.6 2 Norte 5 Nordeste 0 -- -- 83
2019-04-21 22:00:00 12.2 3 Norte 9 Este 0 -- -- 70
2019-04-21 21:00:00 13.8 4 Nordeste 13 Nordeste 0 -- -- 62
2019-04-21 20:00:00 14.6 8 Este 19 Este 0 -- -- 60
2019-04-21 19:00:00 15.2 8 Nordeste 26 Este 0 -- -- 58
2019-04-21 18:00:00 16.8 15 Nordeste 32 Norte 0 -- -- 52
2019-04-21 17:00:00 16.7 15 Nordeste 29 Nordeste 0 -- -- 51
2019-04-21 16:00:00 17 16 Nordeste 32 Norte 0 -- -- 51
2019-04-21 15:00:00 15.9 18 Nordeste 37 Nordeste 0 -- -- 59
2019-04-21 14:00:00 14.7 17 Nordeste 30 Nordeste 0 -- -- 59
2019-04-21 13:00:00 15 16 Este 36 Este 0 -- -- 58
2019-04-21 12:00:00 13.7 19 Este 37 Este 0 -- -- 64
2019-04-21 11:00:00 12.4 13 Nordeste 31 Nordeste 0 -- -- 68
2019-04-21 10:00:00 10.5 15 Nordeste 30 Nordeste 0 -- -- 72
2019-04-21 09:00:00 8.6 14 Nordeste 22 Nordeste 0 -- -- 81
2019-04-21 08:00:00 6.9 8 Nordeste 17 Nordeste 0 -- -- 87
2019-04-21 07:00:00 6.8 8 Norte 16 Nordeste 0 -- -- 89
2019-04-21 06:00:00 7.4 9 Nordeste 18 Nordeste 0 -- -- 88
2019-04-21 05:00:00 7.8 11 Nordeste 22 Nordeste 0 -- -- 87
2019-04-21 04:00:00 8.6 11 Nordeste 23 Nordeste 0 -- -- 86
2019-04-21 03:00:00 9 9 Este 30 Este 0 -- -- 84
2019-04-21 02:00:00 9.5 15 Este 34 Este 0 -- -- 82
2019-04-21 01:00:00 9.7 9 Este 24 Nordeste 0 -- -- 81
2019-04-21 00:00:00 9.8 11 Este 26 Nordeste 0 -- -- 81
2019-04-20 23:00:00 9.9 14 Sudeste 41 Este 0 -- -- 81
2019-04-20 22:00:00 10.5 24 Este 52 Este 0 -- -- 80
2019-04-20 21:00:00 11.4 20 Este 49 Este 0 -- -- 75
2019-04-20 20:00:00 13.3 19 Este 49 Este 0.2 -- -- 70
2019-04-20 19:00:00 13 24 Este 54 Este 0 -- -- 71
2019-04-20 18:00:00 12.7 31 Nordeste 62 Nordeste 0 -- -- 74
2019-04-20 17:00:00 14 21 Este 51 Este 0 -- -- 77
2019-04-20 16:00:00 12.9 23 Este 55 Este 0 -- -- 77
2019-04-20 15:00:00 12.2 28 Nordeste 54 Este 0 -- -- 78
2019-04-20 14:00:00 12.7 20 Este 45 Nordeste 0 -- -- 80
2019-04-20 13:00:00 12.1 20 Nordeste 38 Nordeste 0 -- -- 83
2019-04-20 12:00:00 10.8 10 Nordeste 24 Nordeste 0 -- -- 91
2019-04-20 11:00:00 9.2 8 Nordeste 18 Nordeste 0.4 -- -- 97
2019-04-20 10:00:00 8 8 Nordeste 17 Nordeste 0.2 -- -- 96
2019-04-20 09:00:00 7.5 10 Nordeste 22 Nordeste 0 -- -- 96
2019-04-20 08:00:00 6.9 11 Nordeste 20 Nordeste 0 -- -- 97
2019-04-20 07:00:00 7 9 Nordeste 18 Nordeste 0 -- -- 96
2019-04-20 06:00:00 7.2 8 Nordeste 18 Nordeste 0 -- -- 97
2019-04-20 05:00:00 7.3 5 Nordeste 11 Norte 0 -- -- 98
2019-04-20 04:00:00 7.8 3 Nordeste 10 Nordeste 0 -- -- 97
2019-04-20 03:00:00 7.9 0 Calma 12 Nordeste 0 -- -- 97
2019-04-20 02:00:00 8.2 0 Calma 9 Nordeste 0 -- -- 96
2019-04-20 01:00:00 9 5 Nordeste 13 Nordeste 0.2 -- -- 96
2019-04-20 00:00:00 9.3 5 Nordeste 9 Este 0 -- -- 96
2019-04-19 23:00:00 9.3 4 Sudeste 15 Norte 0.4 -- -- 96
2019-04-19 22:00:00 9.7 5 Norte 11 Norte 0.6 -- -- 94
2019-04-19 21:00:00 9.9 5 Nordeste 13 Nordeste 0 -- -- 89
2019-04-19 20:00:00 10.4 4 Noroeste 22 Noroeste 1.4 -- -- 89
2019-04-19 19:00:00 13.6 6 Nordeste 19 Nordeste 0 -- -- 67
2019-04-19 18:00:00 14.2 4 Norte 20 Norte 0 -- -- 65
2019-04-19 17:00:00 14.4 11 Norte 17 Nordeste 0 -- -- 69
2019-04-19 16:00:00 13.7 9 Norte 20 Nordeste 0 -- -- 73
2019-04-19 15:00:00 13.6 8 Norte 27 Norte 0 -- -- 74
2019-04-19 14:00:00 12.9 7 Este 17 Nordeste 0 -- -- 80
2019-04-19 13:00:00 13 4 Noroeste 11 Norte 0 -- -- 79
2019-04-19 12:00:00 12.8 6 Norte 17 Norte 0 -- -- 81
2019-04-19 11:00:00 11.8 4 Sudeste 8 Sudeste 0 -- -- 91
2019-04-19 10:00:00 9.2 2 Sur 5 Sudoeste 0 -- -- 97
2019-04-19 09:00:00 9.1 4 Sudeste 7 Sur 1.4 -- -- 98
2019-04-19 08:00:00 8.5 0 Calma 5 Sur 1.4 -- -- 98
2019-04-19 07:00:00 8.5 2 Nordeste 4 Nordeste 0.6 -- -- 98
2019-04-19 06:00:00 8.3 2 Oeste 6 Sudoeste 0 -- -- 98
2019-04-19 05:00:00 7.6 0 Calma 5 Sur 0.2 -- -- 98
2019-04-19 04:00:00 7.3 3 Sur 7 Oeste 0 -- -- 97
2019-04-19 03:00:00 7.8 5 Noroeste 18 Noroeste 0 -- -- 96
2019-04-19 02:00:00 8.1 8 Noroeste 17 Noroeste 0 -- -- 95
2019-04-19 01:00:00 8.7 8 Noroeste 17 Noroeste 0 -- -- 95
2019-04-19 00:00:00 8.7 0 Calma 10 Oeste 0.4 -- -- 94
2019-04-18 23:00:00 9 5 Noroeste 18 Norte 1.6 -- -- 94
2019-04-18 22:00:00 8.4 3 Noroeste 9 Sudoeste 0 -- -- 92
2019-04-18 21:00:00 9.1 4 Sur 16 Sudoeste 0 -- -- 89
2019-04-18 20:00:00 9.4 6 Sudoeste 18 Sudoeste 0.2 -- -- 89
2019-04-18 19:00:00 8.5 8 Sudoeste 27 Oeste 3.6 -- -- 93
2019-04-18 18:00:00 9.4 5 Sudoeste 33 Sur 0 -- -- 84
2019-04-18 17:00:00 14.5 6 Noroeste 17 Nordeste 0 -- -- 63
2019-04-18 16:00:00 14.6 8 Nordeste 18 Norte 0 -- -- 68
2019-04-18 15:00:00 13.6 4 Norte 17 Noroeste 0 -- -- 70
2019-04-18 14:00:00 13.2 6 Noroeste 12 Noroeste 0 -- -- 75
2019-04-18 13:00:00 12.7 4 Sudoeste 15 Noroeste 0 -- -- 77
2019-04-18 12:00:00 11.6 3 Oeste 10 Oeste 0 -- -- 84
2019-04-18 11:00:00 10.3 3 Oeste 7 Oeste 0 -- -- 93
2019-04-18 10:00:00 9.8 3 Oeste 9 Noroeste 0 -- -- 97
2019-04-18 09:00:00 9 0 Calma 6 Sur 0 -- -- 98
2019-04-18 08:00:00 8.6 2 Sudoeste 8 Oeste 0 -- -- 99
2019-04-18 07:00:00 7.9 0 Calma 4 Sur 0 -- -- 97
2019-04-18 06:00:00 8.2 0 Calma 5 Sudoeste 0 -- -- 97
2019-04-18 05:00:00 8.5 5 Sur 10 Sudoeste 0.2 -- -- 97
2019-04-18 04:00:00 7.7 4 Sur 9 Sudoeste 0 -- -- 97
2019-04-18 03:00:00 7.2 3 Sudoeste 6 Sudoeste 0 -- -- 96
2019-04-18 02:00:00 8.2 4 Sur 11 Sur 0 -- -- 95
2019-04-18 01:00:00 8.8 6 Sur 17 Sur 0 -- -- 94
2019-04-18 00:00:00 9 8 Sur 22 Sur 0 -- -- 94
2019-04-17 23:00:00 9.4 13 Sudoeste 26 Sudoeste 0 -- -- 92
2019-04-17 22:00:00 9.5 8 Sudoeste 25 Sudoeste 0 -- -- 91
2019-04-17 21:00:00 9.9 10 Sudoeste 22 Sur 0.2 -- -- 92
2019-04-17 20:00:00 10.4 10 Sur 25 Sur 0.8 -- -- 91
2019-04-17 19:00:00 11.4 10 Sur 21 Sur 0 -- -- 90
2019-04-17 18:00:00 10.8 7 Sur 21 Sudoeste 0.8 -- -- 93
2019-04-17 17:00:00 11.5 15 Oeste 40 Oeste 1.8 -- -- 87
2019-04-17 16:00:00 15.9 17 Sur 40 Sur 0 -- -- 68
2019-04-17 15:00:00 17 22 Sur 45 Sudoeste 0 -- -- 63
2019-04-17 14:00:00 16.4 19 Sur 35 Sudoeste 0 -- -- 67
2019-04-17 13:00:00 15.8 20 Sur 41 Sur 0 -- -- 70
2019-04-17 12:00:00 14.4 16 Sur 32 Sur 0 -- -- 73
2019-04-17 11:00:00 13.6 14 Sur 28 Sur 0 -- -- 72
2019-04-17 10:00:00 13.1 12 Sur 21 Sur 0 -- -- 75
2019-04-17 09:00:00 10.8 6 Sur 13 Sur 0 -- -- 83
2019-04-17 08:00:00 10.1 6 Sudoeste 13 Sur 0 -- -- 80
2019-04-17 07:00:00 10.6 5 Sur 24 Sur 0 -- -- 77
2019-04-17 06:00:00 11.5 13 Sur 28 Sudoeste 0 -- -- 73
2019-04-17 05:00:00 11.9 17 Sur 31 Sur 0 -- -- 70
2019-04-17 04:00:00 12 13 Sur 28 Sudoeste 0 -- -- 69
2019-04-17 03:00:00 12.3 15 Sur 26 Sudoeste 0 -- -- 66
2019-04-17 02:00:00 13.3 14 Sur 30 Sur 0 -- -- 60
2019-04-17 01:00:00 13.5 10 Sur 23 Sudoeste 0 -- -- 57
2019-04-17 00:00:00 14.4 11 Sudoeste 23 Sur 0 -- -- 56
2019-04-16 23:00:00 15.2 13 Sur 28 Sudoeste 0 -- -- 56
2019-04-16 22:00:00 13.1 2 Sur 7 Sudoeste 0 -- -- 64
2019-04-16 21:00:00 16.3 4 Sur 23 Sur 0 -- -- 50
2019-04-16 20:00:00 18.6 16 Sur 27 Sur 0 -- -- 42
2019-04-16 19:00:00 20 16 Sur 26 Sur 0 -- -- 40
2019-04-16 18:00:00 20.7 13 Sur 31 Sur 0 -- -- 43
2019-04-16 17:00:00 20.8 15 Sur 29 Sur 0 -- -- 46
2019-04-16 16:00:00 20.5 12 Sur 30 Sudeste 0 -- -- 42
2019-04-16 15:00:00 19.8 11 Sudeste 26 Sudeste 0 -- -- 44
2019-04-16 14:00:00 19 12 Sur 23 Sur 0 -- -- 42
2019-04-16 13:00:00 17.6 12 Sur 24 Sudeste 0 -- -- 49
2019-04-16 12:00:00 16.6 10 Sudeste 23 Sudeste 0 -- -- 61
2019-04-16 11:00:00 15 12 Sudeste 20 Sur 0 -- -- 68
2019-04-16 10:00:00 11.5 6 Sudeste 9 Este 0 -- -- 86
2019-04-16 09:00:00 7.8 0 Calma 4 Sur 0 -- -- 100
2019-04-16 08:00:00 3.9 0 Calma 4 Sur 0 -- -- 98
2019-04-16 07:00:00 3.9 0 Calma 4 Noroeste 0 -- -- 97
2019-04-16 06:00:00 4.2 2 Noroeste 4 Noroeste 0 -- -- 96
2019-04-16 05:00:00 4.9 2 Noroeste 4 Noroeste 0 -- -- 95
2019-04-16 04:00:00 6.4 0 Calma 8 Sur 0 -- -- 95
2019-04-16 03:00:00 7.9 0 Calma 15 Noroeste 0 -- -- 93
2019-04-16 02:00:00 8.9 7 Noroeste 14 Noroeste 0 -- -- 95
2019-04-16 01:00:00 10.1 3 Norte 18 Noroeste 0 -- -- 88
2019-04-16 00:00:00 10.6 11 Noroeste 17 Noroeste 0 -- -- 82
2019-04-15 23:00:00 11.4 8 Noroeste 14 Oeste 0 -- -- 76
2019-04-15 22:00:00 12.4 6 Noroeste 18 Oeste 0 -- -- 74
2019-04-15 21:00:00 14.6 9 Noroeste 20 Noroeste 0 -- -- 66
2019-04-15 20:00:00 16.3 4 Oeste 24 Noroeste 0 -- -- 61
2019-04-15 19:00:00 16.2 12 Noroeste 27 Noroeste 0 -- -- 64
2019-04-15 18:00:00 16.1 12 Noroeste 31 Oeste 0 -- -- 71
2019-04-15 17:00:00 16.1 11 Noroeste 25 Noroeste 0 -- -- 77
2019-04-15 16:00:00 17.7 8 Noroeste 30 Noroeste 0 -- -- 60
2019-04-15 15:00:00 17.6 12 Noroeste 25 Oeste 0 -- -- 59
2019-04-15 14:00:00 17.7 10 Noroeste 27 Oeste 0 -- -- 61
2019-04-15 13:00:00 17.3 10 Noroeste 25 Oeste 0 -- -- 66
2019-04-15 12:00:00 16.4 10 Noroeste 23 Noroeste 0 -- -- 73
2019-04-15 11:00:00 15.6 12 Noroeste 22 Noroeste 0 -- -- 75
2019-04-15 10:00:00 14.9 9 Noroeste 24 Noroeste 0 -- -- 79
2019-04-15 09:00:00 13.5 6 Oeste 14 Oeste 0 -- -- 73
2019-04-15 08:00:00 12 4 Sudoeste 13 Sudoeste 0 -- -- 87
2019-04-15 07:00:00 11 4 Sudoeste 8 Oeste 0 -- -- 98
2019-04-15 06:00:00 10 2 Sur 6 Sudoeste 0 -- -- 97
2019-04-15 05:00:00 10.1 2 Sur 4 Sudoeste 0 -- -- 97
2019-04-15 04:00:00 10 0 Calma 5 Norte 0 -- -- 95
2019-04-15 03:00:00 10.6 0 Calma 5 Norte 0 -- -- 94
2019-04-15 02:00:00 11.4 2 Noroeste 6 Oeste 0 -- -- 92
2019-04-15 01:00:00 12.4 2 Oeste 4 Oeste 0 -- -- 92
2019-04-15 00:00:00 13.9 0 Calma 5 Sudoeste 0 -- -- 89
2019-04-14 23:00:00 15.1 2 Sudoeste 4 Sudoeste 0 -- -- 86
2019-04-14 22:00:00 17.3 2 Oeste 9 Oeste 0 -- -- 77
2019-04-14 21:00:00 19 4 Noroeste 8 Oeste 0 -- -- 71
2019-04-14 20:00:00 21.4 4 Oeste 10 Oeste 0 -- -- 60
2019-04-14 19:00:00 22.5 5 Sur 14 Noroeste 0 -- -- 56
2019-04-14 18:00:00 22.7 3 Norte 15 Norte 0 -- -- 54
2019-04-14 17:00:00 22.4 5 Oeste 14 Sudoeste 0 -- -- 55
2019-04-14 16:00:00 22.2 4 Sudoeste 14 Sudoeste 0 -- -- 54
2019-04-14 15:00:00 21.8 2 Sudoeste 15 Sur 0 -- -- 56
2019-04-14 14:00:00 21.1 7 Sudoeste 18 Sudoeste 0 -- -- 62
2019-04-14 13:00:00 19.5 5 Sudoeste 11 Noroeste 0 -- -- 66
2019-04-14 12:00:00 17.9 4 Este 9 Este 0 -- -- 77
2019-04-14 11:00:00 14.1 4 Sudeste 8 Este 0 -- -- 90
2019-04-14 10:00:00 12.5 2 Este 6 Este 0 -- -- 97
2019-04-14 09:00:00 11.8 3 Norte 6 Noroeste 0 -- -- 97
2019-04-14 08:00:00 11.9 0 Calma 2 Nordeste 0 -- -- 97
2019-04-14 07:00:00 11.9 0 Calma 9 Noroeste 0 -- -- 97
2019-04-14 06:00:00 11.9 6 Norte 13 Noroeste 0 -- -- 95
2019-04-14 05:00:00 12.1 7 Noroeste 15 Noroeste 0 -- -- 94
2019-04-14 04:00:00 12.2 5 Noroeste 11 Noroeste 0 -- -- 94
2019-04-14 03:00:00 11.5 0 Calma 10 Noroeste 0 -- -- 94
2019-04-14 02:00:00 11.4 3 Noroeste 14 Noroeste 0 -- -- 88
2019-04-14 01:00:00 12.6 6 Noroeste 10 Noroeste 0 -- -- 87
2019-04-14 00:00:00 11.7 5 Noroeste 9 Noroeste 0 -- -- 87
2019-04-13 23:00:00 10.9 4 Noroeste 8 Noroeste 0 -- -- 77
2019-04-13 22:00:00 13.7 4 Noroeste 9 Noroeste 0 -- -- 62
2019-04-13 21:00:00 16.5 6 Noroeste 21 Noroeste 0 -- -- 47
2019-04-13 20:00:00 18.7 9 Noroeste 24 Norte 0 -- -- 40
2019-04-13 19:00:00 19.1 11 Noroeste 24 Noroeste 0 -- -- 42
2019-04-13 18:00:00 20.6 7 Oeste 21 Noroeste 0 -- -- 42
2019-04-13 17:00:00 20.7 8 Oeste 24 Noroeste 0 -- -- 40
2019-04-13 16:00:00 20.4 9 Noroeste 25 Noroeste 0 -- -- 43
2019-04-13 15:00:00 19.5 5 Oeste 18 Norte 0 -- -- 44
2019-04-13 14:00:00 19.3 6 Noroeste 12 Noroeste 0 -- -- 46
2019-04-13 13:00:00 18.4 4 Noroeste 14 Sudeste 0 -- -- 48
2019-04-13 12:00:00 17.2 6 Sudeste 10 Sudeste 0 -- -- 56
2019-04-13 11:00:00 13.6 4 Sudeste 6 Sudeste 0 -- -- 70
2019-04-13 10:00:00 10.1 0 Calma 2 Sudeste 0 -- -- 89
2019-04-13 09:00:00 6.8 0 Calma 4 Norte 0 -- -- 98
2019-04-13 08:00:00 4.5 0 Calma 4 Norte 0 -- -- 97
2019-04-13 07:00:00 4.5 2 Noroeste 3 Norte 0 -- -- 96
2019-04-13 06:00:00 4 3 Norte 4 Noroeste 0 -- -- 95
2019-04-13 05:00:00 4.3 0 Calma 3 Sudoeste 0 -- -- 91
2019-04-13 04:00:00 5.7 0 Calma 4 Sudeste 0 -- -- 83
2019-04-13 03:00:00 7 2 Sur 13 Noroeste 0 -- -- 77
2019-04-13 02:00:00 7.3 6 Noroeste 12 Noroeste 0 -- -- 77
2019-04-13 01:00:00 7.7 5 Noroeste 10 Noroeste 0 -- -- 76
2019-04-13 00:00:00 8.9 6 Noroeste 9 Noroeste 0 -- -- 70
2019-04-12 23:00:00 9.5 6 Noroeste 13 Noroeste 0 -- -- 68
2019-04-12 22:00:00 12.9 9 Noroeste 15 Noroeste 0 -- -- 51
2019-04-12 21:00:00 14.3 7 Noroeste 13 Noroeste 0 -- -- 49
2019-04-12 20:00:00 17.5 6 Norte 14 Noroeste 0 -- -- 38
2019-04-12 19:00:00 18.2 6 Noroeste 21 Noroeste 0 -- -- 37
2019-04-12 18:00:00 18.7 6 Noroeste 19 Norte 0 -- -- 41
2019-04-12 17:00:00 18.4 7 Noroeste 24 Noroeste 0 -- -- 38
2019-04-12 16:00:00 18.1 8 Noroeste 18 Noroeste 0 -- -- 38
2019-04-12 15:00:00 17.5 11 Noroeste 28 Nordeste 0 -- -- 40
2019-04-12 14:00:00 17.1 6 Sudoeste 20 Noroeste 0 -- -- 43
2019-04-12 13:00:00 16.2 9 Norte 24 Noroeste 0 -- -- 41
2019-04-12 12:00:00 15.9 10 Noroeste 19 Noroeste 0 -- -- 44
2019-04-12 11:00:00 14.6 6 Norte 13 Nordeste 0 -- -- 45
2019-04-12 10:00:00 10.7 2 Este 3 Este 0 -- -- 71
2019-04-12 09:00:00 5.6 0 Calma 3 Noroeste 0 -- -- 99
2019-04-12 08:00:00 2.7 3 Noroeste 4 Noroeste 0 -- -- 98
2019-04-12 07:00:00 2.6 2 Noroeste 3 Noroeste 0 -- -- 96
2019-04-12 06:00:00 3.2 0 Calma 3 Norte 0 -- -- 96
2019-04-12 05:00:00 3.9 0 Calma 2 Norte 0 -- -- 95
2019-04-12 04:00:00 4.9 0 Calma 4 Sudeste 0 -- -- 94
2019-04-12 03:00:00 6.1 0 Calma 6 Sudoeste 0 -- -- 89
2019-04-12 02:00:00 8.3 2 Sudeste 16 Oeste 0 -- -- 81
2019-04-12 01:00:00 9.4 8 Noroeste 16 Noroeste 0 -- -- 75
2019-04-12 00:00:00 9.8 9 Noroeste 15 Noroeste 0 -- -- 70
2019-04-11 23:00:00 9.8 6 Noroeste 12 Norte 0 -- -- 70
2019-04-11 22:00:00 11.4 6 Noroeste 15 Noroeste 0 -- -- 62
2019-04-11 21:00:00 13.3 7 Noroeste 14 Noroeste 0 -- -- 56
2019-04-11 20:00:00 14.9 11 Norte 20 Noroeste 0 -- -- 50
2019-04-11 19:00:00 16.7 10 Norte 24 Norte 0 -- -- 45
2019-04-11 18:00:00 16.8 13 Norte 28 Noroeste 0 -- -- 45
2019-04-11 17:00:00 16.6 13 Norte 27 Noroeste 0 -- -- 43
2019-04-11 16:00:00 16.6 12 Norte 26 Nordeste 0 -- -- 48
2019-04-11 15:00:00 15.3 10 Norte 26 Norte 0 -- -- 55
2019-04-11 14:00:00 14.9 11 Norte 22 Norte 0 -- -- 59
2019-04-11 13:00:00 14.1 8 Norte 19 Noroeste 0 -- -- 63
2019-04-11 12:00:00 12.7 8 Norte 16 Nordeste 0 -- -- 66
2019-04-11 11:00:00 11.2 8 Norte 14 Norte 0 -- -- 74
2019-04-11 10:00:00 9 7 Norte 15 Norte 0 -- -- 84
2019-04-11 09:00:00 6.4 6 Noroeste 13 Noroeste 0 -- -- 100
2019-04-11 08:00:00 3.1 3 Noroeste 7 Norte 0 -- -- 97
2019-04-11 07:00:00 3.5 0 Calma 8 Norte 0 -- -- 96
2019-04-11 06:00:00 5.2 6 Noroeste 14 Noroeste 0 -- -- 97
2019-04-11 05:00:00 5.2 3 Noroeste 12 Noroeste 0 -- -- 96
2019-04-11 04:00:00 5.9 7 Noroeste 15 Oeste 0 -- -- 95
2019-04-11 03:00:00 5.8 3 Noroeste 15 Noroeste 0 -- -- 92
2019-04-11 02:00:00 7.4 9 Noroeste 21 Noroeste 0 -- -- 89
2019-04-11 01:00:00 8.1 9 Noroeste 26 Noroeste 0 -- -- 85
2019-04-11 00:00:00 9.1 13 Noroeste 27 Noroeste 0 -- -- 81
2019-04-10 23:00:00 9.8 11 Noroeste 23 Noroeste 0 -- -- 76
2019-04-10 22:00:00 10.3 11 Norte 21 Noroeste 0 -- -- 71
2019-04-10 21:00:00 11.8 11 Noroeste 27 Norte 0 -- -- 63
2019-04-10 20:00:00 13.5 17 Norte 33 Noroeste 0 -- -- 55
2019-04-10 19:00:00 14.3 17 Noroeste 33 Noroeste 0 -- -- 53
2019-04-10 18:00:00 13.3 16 Noroeste 39 Norte 0 -- -- 57
2019-04-10 17:00:00 14.1 20 Norte 37 Noroeste 0 -- -- 55
2019-04-10 16:00:00 13.6 19 Noroeste 38 Noroeste 0 -- -- 59
2019-04-10 15:00:00 13.9 16 Noroeste 37 Noroeste 0 -- -- 60
2019-04-10 14:00:00 13.2 18 Noroeste 36 Noroeste 0 -- -- 66
2019-04-10 13:00:00 11.9 15 Noroeste 32 Noroeste 0 -- -- 69
2019-04-10 12:00:00 10.8 15 Noroeste 33 Norte 0 -- -- 73
2019-04-10 11:00:00 9.2 14 Noroeste 26 Noroeste 0 -- -- 83
2019-04-10 10:00:00 7.5 10 Noroeste 31 Noroeste 0 -- -- 91
2019-04-10 09:00:00 6.9 10 Noroeste 24 Noroeste 0 -- -- 94
2019-04-10 08:00:00 6.8 10 Noroeste 25 Noroeste 0 -- -- 95
2019-04-10 07:00:00 6.8 8 Noroeste 26 Noroeste 0 -- -- 96
2019-04-10 06:00:00 6.8 9 Noroeste 24 Noroeste 0 -- -- 96
2019-04-10 05:00:00 7 10 Noroeste 24 Noroeste 0 -- -- 95
2019-04-10 04:00:00 7.2 9 Noroeste 26 Noroeste 0 -- -- 95
2019-04-10 03:00:00 7.2 7 Noroeste 17 Noroeste 0 -- -- 95
2019-04-10 02:00:00 7.1 5 Noroeste 21 Noroeste 0 -- -- 94
2019-04-10 01:00:00 7.4 8 Noroeste 23 Noroeste 0 -- -- 91
2019-04-10 00:00:00 8.2 11 Noroeste 21 Noroeste 0 -- -- 87
2019-04-09 23:00:00 9 9 Noroeste 21 Noroeste 0 -- -- 86
2019-04-09 22:00:00 9.3 7 Noroeste 17 Noroeste 0 -- -- 86
2019-04-09 21:00:00 9.7 8 Noroeste 15 Oeste 0 -- -- 86
2019-04-09 20:00:00 10.5 4 Noroeste 20 Oeste 0.2 -- -- 88
2019-04-09 19:00:00 11.4 10 Noroeste 23 Oeste 0 -- -- 85
2019-04-09 18:00:00 9.7 8 Noroeste 36 Noroeste 3 -- -- 92
2019-04-09 17:00:00 13 13 Oeste 33 Noroeste 0.2 -- -- 76
2019-04-09 16:00:00 11.5 12 Oeste 32 Oeste 0 -- -- 83
2019-04-09 15:00:00 10.7 12 Noroeste 32 Oeste 0.8 -- -- 87
2019-04-09 14:00:00 10.7 14 Noroeste 38 Oeste 0.4 -- -- 82
2019-04-09 13:00:00 11.7 14 Noroeste 35 Noroeste 0 -- -- 77
2019-04-09 12:00:00 10 11 Noroeste 30 Oeste -- -- -- 84
2019-04-09 11:00:00 9.9 13 Noroeste 30 Oeste 0 -- -- 84
2019-04-09 10:00:00 8.8 13 Oeste 28 Oeste 0 -- -- 89
2019-04-09 09:00:00 7.9 8 Noroeste 25 Oeste 0 -- -- 93
2019-04-09 08:00:00 7.6 10 Noroeste 31 Oeste 0 -- -- 94
2019-04-09 07:00:00 7.9 6 Oeste 21 Oeste 0 -- -- 94
2019-04-09 06:00:00 7.8 8 Oeste 26 Noroeste 0 -- -- 93
2019-04-09 05:00:00 7.9 8 Oeste 20 Oeste 0 -- -- 95
2019-04-09 04:00:00 7.7 7 Oeste 24 Oeste 0 -- -- 94
2019-04-09 03:00:00 7.4 6 Oeste 18 Oeste 0 -- -- 93
2019-04-09 02:00:00 7.1 3 Oeste 12 Oeste 0 -- -- 92
2019-04-09 01:00:00 6.9 4 Noroeste 12 Oeste 0 -- -- 90
2019-04-09 00:00:00 7.8 3 Noroeste 16 Oeste 0 -- -- 85
2019-04-08 23:00:00 9.2 8 Noroeste 21 Oeste 0 -- -- 81
2019-04-08 22:00:00 9.5 8 Noroeste 27 Oeste 0 -- -- 75
2019-04-08 21:00:00 11 15 Noroeste 33 Noroeste 0 -- -- 71
2019-04-08 20:00:00 13.1 11 Noroeste 27 Noroeste 0 -- -- 57
2019-04-08 19:00:00 14.1 13 Noroeste 34 Noroeste 0 -- -- 54
2019-04-08 18:00:00 14.3 12 Oeste 40 Oeste 0 -- -- 59
2019-04-08 17:00:00 14.5 12 Noroeste 31 Oeste 0 -- -- 64
2019-04-08 16:00:00 14.8 15 Oeste 31 Noroeste 0 -- -- 64
2019-04-08 15:00:00 13.8 11 Noroeste 26 Noroeste 0 -- -- 70
2019-04-08 14:00:00 13.9 10 Noroeste 27 Oeste 0 -- -- 76
2019-04-08 13:00:00 13.2 6 Oeste 15 Oeste 0 -- -- 78
2019-04-08 12:00:00 11.7 6 Oeste 17 Oeste 0 -- -- 88
2019-04-08 11:00:00 10.1 3 Oeste 12 Oeste 0.4 -- -- 95
2019-04-08 10:00:00 9.4 6 Noroeste 17 Noroeste 0.4 -- -- 96
2019-04-08 09:00:00 9.4 8 Oeste 21 Oeste 2.8 -- -- 97
2019-04-08 08:00:00 9.5 4 Sudoeste 18 Oeste 1.4 -- -- 97
2019-04-08 07:00:00 9.7 6 Sudoeste 23 Oeste 1 -- -- 97
2019-04-08 06:00:00 9.6 6 Sudoeste 23 Sudoeste 0.8 -- -- 98
2019-04-08 05:00:00 9.7 11 Sudoeste 24 Oeste 1.2 -- -- 97
2019-04-08 04:00:00 9.6 8 Sudoeste 21 Sur 0.8 -- -- 96
2019-04-08 03:00:00 9.7 5 Sudoeste 21 Sudoeste 0 -- -- 95
2019-04-08 02:00:00 10.1 8 Oeste 23 Oeste 0 -- -- 95
2019-04-08 01:00:00 10.4 10 Oeste 27 Oeste 0 -- -- 95
2019-04-08 00:00:00 10.4 15 Oeste 33 Noroeste 3 -- -- 96
2019-04-07 23:00:00 10.7 5 Sur 17 Noroeste 0 -- -- 96
2019-04-07 22:00:00 10.7 3 Sudoeste 20 Oeste 0 -- -- 95
2019-04-07 21:00:00 11.2 8 Oeste 24 Oeste 0 -- -- 94
2019-04-07 20:00:00 11.6 8 Oeste 29 Oeste 2.8 -- -- 94
2019-04-07 19:00:00 11.9 7 Sudoeste 17 Sudoeste 1.6 -- -- 95
2019-04-07 18:00:00 12.4 9 Sudoeste 26 Sudoeste 0 -- -- 89
2019-04-07 17:00:00 12.7 14 Sur 26 Sur 0 -- -- 87
2019-04-07 16:00:00 11.2 12 Sudoeste 26 Sudoeste 0 -- -- 92
2019-04-07 15:00:00 10.5 10 Sur 21 Sur 0.6 -- -- 95
2019-04-07 14:00:00 9.8 9 Sudoeste 22 Sudoeste 0.4 -- -- 91
2019-04-07 13:00:00 10 6 Oeste 26 Sudoeste 0.2 -- -- 87
2019-04-07 12:00:00 10.3 10 Oeste 25 Oeste 0 -- -- 80
2019-04-07 11:00:00 9.3 9 Oeste 21 Oeste 0 -- -- 88
2019-04-07 10:00:00 7.9 8 Oeste 21 Oeste 0 -- -- 95
2019-04-07 09:00:00 7.1 5 Oeste 16 Sudoeste 0 -- -- 96
2019-04-07 08:00:00 6.4 4 Sudoeste 18 Oeste 0 -- -- 94
2019-04-07 07:00:00 6.5 9 Oeste 24 Oeste 0 -- -- 92
2019-04-07 06:00:00 6.8 8 Oeste 25 Oeste 0.6 -- -- 94
2019-04-07 05:00:00 7 8 Oeste 27 Oeste 0 -- -- 95
2019-04-07 04:00:00 6.9 11 Oeste 25 Oeste 0 -- -- 95
2019-04-07 03:00:00 6.7 10 Oeste 24 Oeste 0 -- -- 95
2019-04-07 02:00:00 6.6 10 Oeste 27 Oeste 0 -- -- 95
2019-04-07 01:00:00 6.6 9 Oeste 23 Oeste 0.2 -- -- 95
2019-04-07 00:00:00 6.4 9 Noroeste 25 Noroeste 0 -- -- 95
2019-04-06 23:00:00 6.4 9 Noroeste 31 Oeste 1.4 -- -- 93
2019-04-06 22:00:00 7.1 13 Noroeste 29 Noroeste 0.6 -- -- 90
2019-04-06 21:00:00 7.6 10 Oeste 35 Oeste 0 -- -- 84
2019-04-06 20:00:00 10.1 14 Oeste 31 Oeste 0.2 -- -- 71
2019-04-06 19:00:00 8.9 9 Noroeste 21 Noroeste 0 -- -- 86
2019-04-06 18:00:00 7.8 10 Oeste 41 Noroeste 0.4 -- -- 83
2019-04-06 17:00:00 11.1 22 Noroeste 41 Oeste 0 -- -- 64
2019-04-06 16:00:00 8.9 21 Noroeste 56 Noroeste 0.2 -- -- 83
2019-04-06 15:00:00 11.3 13 Oeste 33 Oeste 0 -- -- 66
2019-04-06 14:00:00 10.2 15 Oeste 32 Oeste 0 -- -- 76
2019-04-06 13:00:00 8.7 14 Noroeste 36 Noroeste 0 -- -- 82
2019-04-06 12:00:00 7.1 16 Oeste 32 Oeste 1 -- -- 92
2019-04-06 11:00:00 6.2 6 Oeste 26 Oeste 1.6 -- -- 96
2019-04-06 10:00:00 6.2 10 Oeste 21 Oeste 0.2 -- -- 93
2019-04-06 09:00:00 5.5 6 Oeste 20 Oeste 0.2 -- -- 96
2019-04-06 08:00:00 5.2 7 Oeste 23 Oeste 0 -- -- 96
2019-04-06 07:00:00 5.1 8 Oeste 28 Noroeste 1 -- -- 95
2019-04-06 06:00:00 5.7 9 Oeste 27 Oeste 0.6 -- -- 95
2019-04-06 05:00:00 5.8 9 Oeste 24 Oeste 0 -- -- 95
2019-04-06 04:00:00 5.8 10 Oeste 29 Oeste 0 -- -- 95
2019-04-06 03:00:00 5.6 11 Noroeste 24 Oeste 0 -- -- 95
2019-04-06 02:00:00 5.5 8 Noroeste 27 Noroeste 0 -- -- 94
2019-04-06 01:00:00 5.7 10 Noroeste 24 Oeste 0 -- -- 93
2019-04-06 00:00:00 5.8 8 Noroeste 30 Oeste 0 -- -- 93
2019-04-05 23:00:00 6 8 Oeste 20 Noroeste 0 -- -- 93
2019-04-05 22:00:00 5.9 7 Noroeste 22 Oeste 0 -- -- 91
2019-04-05 21:00:00 5.9 10 Noroeste 27 Noroeste 0 -- -- 90
2019-04-05 20:00:00 6.3 9 Noroeste 32 Oeste 0.4 -- -- 91
2019-04-05 19:00:00 7 12 Oeste 42 Noroeste 1.4 -- -- 85
2019-04-05 18:00:00 7.7 10 Noroeste 50 Noroeste 0.2 -- -- 77
2019-04-05 17:00:00 10.9 15 Oeste 36 Oeste 0 -- -- 61
2019-04-05 16:00:00 9.4 12 Oeste 36 Oeste 0 -- -- 62
2019-04-05 15:00:00 9.5 13 Oeste 34 Oeste 0 -- -- 60
2019-04-05 14:00:00 7.8 16 Noroeste 36 Noroeste 0 -- -- 72
2019-04-05 13:00:00 6.7 14 Noroeste 36 Oeste 0 -- -- 85
2019-04-05 12:00:00 6.5 17 Noroeste 35 Oeste 0 -- -- 87
2019-04-05 11:00:00 5.1 10 Noroeste 36 Noroeste 0.2 -- -- 94
2019-04-05 10:00:00 6 12 Noroeste 30 Oeste 2.4 -- -- 93
2019-04-05 09:00:00 6.1 3 Sudoeste 14 Sudoeste 0.2 -- -- 97
2019-04-05 08:00:00 5.8 3 Sudoeste 8 Sur 0.2 -- -- 96
2019-04-05 07:00:00 5.8 3 Oeste 15 Noroeste 0.8 -- -- 95
2019-04-05 06:00:00 6.2 9 Noroeste 18 Noroeste 1.8 -- -- 95
2019-04-05 05:00:00 6.7 5 Sudoeste 24 Sur 2.4 -- -- 97
2019-04-05 04:00:00 6.4 7 Sudoeste 24 Sudoeste 2.8 -- -- 96
2019-04-05 03:00:00 5.9 8 Sudoeste 18 Sudoeste 0.2 -- -- 95
2019-04-05 02:00:00 5.2 8 Sur 16 Sur 0.2 -- -- 92
2019-04-05 01:00:00 6.2 5 Sudoeste 29 Noroeste 0 -- -- 78
2019-04-05 00:00:00 7.4 10 Oeste 28 Oeste 0 -- -- 74
2019-04-04 23:00:00 7.7 7 Noroeste 20 Oeste 0 -- -- 71
2019-04-04 22:00:00 8.8 9 Oeste 22 Noroeste 0 -- -- 63
2019-04-04 21:00:00 10.3 3 Oeste 18 Oeste 0 -- -- 49
2019-04-04 20:00:00 12.7 11 Oeste 24 Noroeste 0 -- -- 40
2019-04-04 19:00:00 13.8 11 Noroeste 28 Noroeste 0 -- -- 34
2019-04-04 18:00:00 14.3 9 Oeste 26 Noroeste 0 -- -- 36
2019-04-04 17:00:00 14.3 12 Noroeste 24 Noroeste 0 -- -- 34
2019-04-04 16:00:00 13.7 9 Noroeste 22 Noroeste 0 -- -- 34
2019-04-04 15:00:00 13.4 9 Noroeste 18 Norte 0 -- -- 38
2019-04-04 14:00:00 12.3 7 Norte 21 Norte 0 -- -- 35
2019-04-04 13:00:00 11.3 8 Norte 21 Noroeste 0 -- -- 37
2019-04-04 12:00:00 10 10 Nordeste 24 Norte 0 -- -- 47
2019-04-04 11:00:00 7.7 15 Norte 29 Norte 0 -- -- 55
2019-04-04 10:00:00 5.8 13 Norte 23 Norte 0 -- -- 62
2019-04-04 09:00:00 3.1 6 Norte 19 Norte 0 -- -- 73
2019-04-04 08:00:00 2.3 9 Norte 17 Norte 0 -- -- 76
2019-04-04 07:00:00 2.6 9 Norte 17 Norte 0 -- -- 77
2019-04-04 06:00:00 3.1 12 Norte 17 Noroeste 0 -- -- 80
2019-04-04 05:00:00 3.6 7 Norte 14 Norte 0 -- -- 82
2019-04-04 04:00:00 3.4 6 Noroeste 10 Norte 0 -- -- 86
2019-04-04 03:00:00 4.6 7 Norte 17 Norte 0 -- -- 82
2019-04-04 02:00:00 6.3 10 Norte 25 Norte 0 -- -- 76
2019-04-04 01:00:00 7 12 Norte 22 Noroeste 0 -- -- 72
2019-04-04 00:00:00 7.7 10 Noroeste 31 Noroeste 0 -- -- 70
2019-04-03 23:00:00 8.4 12 Noroeste 22 Norte 0 -- -- 67
2019-04-03 22:00:00 9.6 9 Noroeste 18 Noroeste 0 -- -- 64
2019-04-03 21:00:00 11.1 5 Noroeste 22 Noroeste 0 -- -- 59
2019-04-03 20:00:00 13.4 12 Noroeste 26 Noroeste 0 -- -- 52
2019-04-03 19:00:00 14.6 13 Noroeste 29 Norte 0 -- -- 52
2019-04-03 18:00:00 15 14 Noroeste 30 Norte 0 -- -- 53
2019-04-03 17:00:00 15 11 Noroeste 28 Noroeste 0 -- -- 55
2019-04-03 16:00:00 14.7 13 Noroeste 33 Noroeste 0 -- -- 60
2019-04-03 15:00:00 14.5 10 Oeste 25 Oeste 0 -- -- 59
2019-04-03 14:00:00 13.9 10 Oeste 21 Noroeste 0 -- -- 58
2019-04-03 13:00:00 12.9 8 Oeste 18 Oeste 0 -- -- 62
2019-04-03 12:00:00 11 10 Noroeste 18 Noroeste 0 -- -- 75
2019-04-03 11:00:00 9.1 6 Noroeste 20 Noroeste 0 -- -- 85
2019-04-03 10:00:00 6.4 5 Noroeste 13 Noroeste 0 -- -- 99
2019-04-03 09:00:00 3.1 0 Calma 2 Norte 0 -- -- 98
2019-04-03 08:00:00 4 0 Calma 5 Sur 0 -- -- 97
2019-04-03 07:00:00 4.7 3 Sur 4 Sur 0 -- -- 97
2019-04-03 06:00:00 5.5 3 Sur 5 Sur 0 -- -- 97
2019-04-03 05:00:00 5.2 5 Norte 6 Noroeste 0 -- -- 96
2019-04-03 04:00:00 6 0 Calma 4 Sur 0 -- -- 93
2019-04-03 03:00:00 8.2 2 Oeste 9 Noroeste 0 -- -- 90
2019-04-03 02:00:00 9.8 5 Noroeste 18 Noroeste 0 -- -- 85
2019-04-03 01:00:00 11.4 11 Noroeste 17 Noroeste 0 -- -- 79
2019-04-03 00:00:00 11.6 7 Noroeste 14 Oeste 0 -- -- 78
2019-04-02 23:00:00 12 8 Noroeste 13 Noroeste 0 -- -- 74
2019-04-02 22:00:00 10.5 4 Noroeste 9 Noroeste 0 -- -- 81
2019-04-02 21:00:00 14 6 Noroeste 20 Noroeste 0 -- -- 66
2019-04-02 20:00:00 16.8 7 Noroeste 15 Norte 0 -- -- 53
2019-04-02 19:00:00 17.7 8 Noroeste 18 Norte 0 -- -- 47
2019-04-02 18:00:00 17.1 10 Norte 19 Noroeste 0 -- -- 59
2019-04-02 17:00:00 17.2 7 Nordeste 14 Norte 0 -- -- 57
2019-04-02 16:00:00 16.9 6 Nordeste 15 Norte 0 -- -- 51
2019-04-02 15:00:00 16.7 5 Norte 17 Norte 0 -- -- 59
2019-04-02 14:00:00 14.8 10 Norte 16 Nordeste 0 -- -- 63
2019-04-02 13:00:00 15.4 5 Norte 16 Norte 0 -- -- 64
2019-04-02 12:00:00 14 9 Norte 16 Nordeste 0 -- -- 69
2019-04-02 11:00:00 11.9 3 Nordeste 6 Nordeste 0 -- -- 76
2019-04-02 10:00:00 9.5 0 Calma 4 Norte 0 -- -- 100
2019-04-02 09:00:00 5.3 2 Noroeste 3 Noroeste 0 -- -- 99
2019-04-02 08:00:00 4.1 0 Calma 4 Noroeste 0 -- -- 98
2019-04-02 07:00:00 4.2 3 Noroeste 4 Noroeste 0 -- -- 98
2019-04-02 06:00:00 4.7 0 Calma 4 Norte 0 -- -- 97
2019-04-02 05:00:00 5.2 3 Noroeste 4 Norte 0 -- -- 97
2019-04-02 04:00:00 6.2 2 Noroeste 4 Noroeste 0 -- -- 96
2019-04-02 03:00:00 7.7 3 Norte 4 Norte 0 -- -- 97
2019-04-02 02:00:00 8.5 0 Calma 5 Noroeste 0 -- -- 97
2019-04-02 01:00:00 7.9 3 Noroeste 7 Noroeste 0 -- -- 96
2019-04-02 00:00:00 9.2 0 Calma 5 Norte 0 -- -- 95
2019-04-01 23:00:00 10.3 3 Sur 8 Sur 0 -- -- 96
2019-04-01 22:00:00 10.6 4 Sur 9 Sur 0.4 -- -- 94
2019-04-01 21:00:00 10.7 0 Calma 12 Noroeste 0 -- -- 90
2019-04-01 20:00:00 11.7 8 Noroeste 15 Norte 0 -- -- 87
2019-04-01 19:00:00 12.8 9 Sur 31 Sur 0 -- -- 74
2019-04-01 18:00:00 15.4 14 Sur 33 Sur 0 -- -- 72
2019-04-01 17:00:00 12.8 3 Norte 9 Oeste 0.6 -- -- 83
2019-04-01 16:00:00 11.6 5 Sudoeste 19 Sudeste 5 -- -- 83
2019-04-01 15:00:00 15.6 0 Calma 14 Noroeste 0 -- -- 63
2019-04-01 14:00:00 17.1 4 Oeste 10 Nordeste 0 -- -- 55
2019-04-01 13:00:00 15.3 5 Sudoeste 13 Sudoeste 0 -- -- 66
2019-04-01 12:00:00 15.2 6 Sudoeste 15 Sur 0 -- -- 66
2019-04-01 11:00:00 13.1 10 Sur 17 Sudeste 0 -- -- 81
2019-04-01 10:00:00 10.3 8 Sur 14 Sur 0 -- -- 96
2019-04-01 09:00:00 8.8 0 Calma 12 Sur 0 -- -- 98
2019-04-01 08:00:00 8.7 4 Sudoeste 15 Sur 0 -- -- 98
2019-04-01 07:00:00 9.2 6 Sur 13 Sur 0 -- -- 99
2019-04-01 06:00:00 8.3 3 Sudoeste 5 Sur 0 -- -- 98
2019-04-01 05:00:00 7.8 0 Calma 5 Oeste 0.2 -- -- 98
2019-04-01 04:00:00 7.9 0 Calma 3 Sudoeste 0 -- -- 96
2019-04-01 03:00:00 9.1 0 Calma 6 Este 0 -- -- 96
2019-04-01 02:00:00 9.6 3 Sudoeste 6 Sudoeste 0 -- -- 96
2019-04-01 01:00:00 9.8 4 Sudoeste 6 Sudoeste 0 -- -- 96
2019-04-01 00:00:00 9.7 0 Calma 5 Sudoeste 0 -- -- 96
2019-03-31 23:00:00 9.8 0 Calma 7 Noroeste 0 -- -- 94
2019-03-31 22:00:00 10.1 4 Noroeste 7 Noroeste 0 -- -- 93
2019-03-31 21:00:00 10.5 5 Norte 14 Norte 2 -- -- 92
2019-03-31 20:00:00 12.1 8 Norte 22 Noroeste 0 -- -- 80
2019-03-31 19:00:00 15.5 5 Sur 14 Este 0 -- -- 59
2019-03-31 18:00:00 16.2 11 Sudeste 26 Sudeste 0 -- -- 63
2019-03-31 17:00:00 14.1 8 Noroeste 18 Sudoeste 0.4 -- -- 77
2019-03-31 16:00:00 14.9 9 Sudoeste 24 Sudoeste 0 -- -- 75
2019-03-31 15:00:00 16.3 6 Noroeste 13 Noroeste 0 -- -- 60
2019-03-31 14:00:00 16.3 8 Norte 13 Norte 0 -- -- 64
2019-03-31 13:00:00 15.7 4 Este 13 Sudeste 0 -- -- 63
2019-03-31 12:00:00 13.1 2 Norte 9 Este 0 -- -- 82
2019-03-31 11:00:00 11.8 3 Este 7 Este 0 -- -- 92
2019-03-31 10:00:00 10.5 0 Calma 9 Oeste 0 -- -- 98
2019-03-31 09:00:00 8.6 0 Calma 4 Nordeste 0 -- -- 99
2019-03-31 08:00:00 7.6 2 Norte 6 Noroeste 0 -- -- 98
2019-03-31 07:00:00 6.9 0 Calma 6 Sur 0 -- -- 97
2019-03-31 06:00:00 7.8 0 Calma 5 Oeste 0.2 -- -- 96
2019-03-31 05:00:00 8.9 5 Oeste 6 Oeste 0 -- -- 97
2019-03-31 03:00:00 8.1 3 Sudoeste 5 Sudoeste 0 -- -- 96
2019-03-31 01:00:00 8.9 0 Calma 8 Sudoeste 0 -- -- 94
2019-03-31 00:00:00 10 3 Sur 6 Sur 0 -- -- 94
2019-03-30 23:00:00 10.3 0 Calma 10 Oeste 0 -- -- 92
2019-03-30 22:00:00 10.7 0 Calma 22 Noroeste 0 -- -- 90
2019-03-30 21:00:00 11.8 7 Oeste 23 Oeste 0.6 -- -- 87
2019-03-30 20:00:00 12.1 7 Noroeste 12 Oeste 0 -- -- 87
2019-03-30 19:00:00 13.4 6 Noroeste 30 Sur 3.4 -- -- 85
2019-03-30 18:00:00 18.2 5 Sur 15 Sur 0 -- -- 58
2019-03-30 17:00:00 18.9 5 Sur 17 Este 0 -- -- 46
2019-03-30 16:00:00 20.4 6 Este 14 Este 0 -- -- 45
2019-03-30 15:00:00 19.2 7 Este 18 Sudeste 0 -- -- 49
2019-03-30 14:00:00 18 8 Sudeste 20 Este 0 -- -- 51
2019-03-30 13:00:00 18 6 Este 18 Este 0 -- -- 50
2019-03-30 12:00:00 17 8 Sudeste 15 Este 0 -- -- 55
2019-03-30 11:00:00 15.6 8 Sudeste 19 Este 0 -- -- 59
2019-03-30 10:00:00 13.1 10 Sur 16 Sudeste 0 -- -- 67
2019-03-30 09:00:00 9 4 Sur 8 Sur 0 -- -- 83
2019-03-30 08:00:00 5.4 0 Calma 4 Norte 0 -- -- 95
2019-03-30 07:00:00 5.3 3 Nordeste 5 Norte 0 -- -- 91
2019-03-30 06:00:00 7.2 0 Calma 5 Nordeste 0 -- -- 86
2019-03-30 05:00:00 8.2 0 Calma 5 Sur 0 -- -- 85
2019-03-30 04:00:00 9.2 0 Calma 6 Sudeste 0 -- -- 81
2019-03-30 03:00:00 10.2 3 Este 7 Sudeste 0 -- -- 76
2019-03-30 02:00:00 11.2 2 Este 12 Sur 0 -- -- 75
2019-03-30 01:00:00 11.9 2 Sudeste 14 Sudoeste 0 -- -- 69
2019-03-30 00:00:00 12.1 5 Sudoeste 15 Sur 0 -- -- 63
2019-03-29 23:00:00 13.6 8 Sur 21 Sudoeste 0 -- -- 57
2019-03-29 22:00:00 11.5 5 Sudoeste 10 Sudoeste 0 -- -- 58
2019-03-29 21:00:00 10.6 3 Sudoeste 6 Sudoeste 0 -- -- 62
2019-03-29 20:00:00 14.1 2 Sudoeste 11 Sur 0 -- -- 50
2019-03-29 19:00:00 17.4 8 Sudeste 15 Sur 0 -- -- 40
2019-03-29 18:00:00 19.7 5 Sur 14 Sur 0 -- -- 33
2019-03-29 17:00:00 19.8 3 Sudeste 17 Sudeste 0 -- -- 33
2019-03-29 16:00:00 19.3 5 Sur 18 Sudoeste 0 -- -- 34
2019-03-29 15:00:00 18.9 6 Sur 15 Sur 0 -- -- 31
2019-03-29 14:00:00 18 5 Sur 21 Sur 0 -- -- 32
2019-03-29 13:00:00 16.9 5 Sudeste 19 Sur 0 -- -- 39
2019-03-29 12:00:00 15.9 10 Sur 25 Sur 0 -- -- 39
2019-03-29 11:00:00 14.3 13 Sur 29 Sudeste 0 -- -- 44
2019-03-29 10:00:00 12.3 16 Sudeste 24 Sudeste 0 -- -- 47
2019-03-29 09:00:00 9.1 7 Sudeste 12 Sudeste 0 -- -- 54
2019-03-29 08:00:00 6.7 4 Sudeste 11 Sudeste 0 -- -- 59
2019-03-29 07:00:00 6.7 8 Sudeste 19 Sudeste 0 -- -- 59
2019-03-29 06:00:00 5.7 6 Sudeste 12 Este 0 -- -- 65
2019-03-29 05:00:00 6.2 6 Sur 12 Sur 0 -- -- 65
2019-03-29 04:00:00 6.5 5 Sudeste 12 Sur 0 -- -- 67
2019-03-29 03:00:00 5.9 4 Sur 15 Sur 0 -- -- 64
2019-03-29 02:00:00 5.9 7 Sur 12 Sur 0 -- -- 58
2019-03-29 01:00:00 4.4 0 Calma 6 Sur 0 -- -- 63
2019-03-29 00:00:00 4.2 2 Sur 5 Sur 0 -- -- 67
2019-03-28 23:00:00 5.9 2 Norte 8 Sudoeste 0 -- -- 61
2019-03-28 22:00:00 5.5 0 Calma 4 Sur 0 -- -- 72
2019-03-28 21:00:00 8.1 3 Norte 4 Sudeste 0 -- -- 61
2019-03-28 20:00:00 12.6 3 Sudeste 13 Sur 0 -- -- 49
2019-03-28 19:00:00 15.6 9 Sudeste 19 Sudeste 0 -- -- 40
2019-03-28 18:00:00 17.2 10 Sudeste 26 Sudeste 0 -- -- 35
2019-03-28 17:00:00 17.7 13 Sudeste 27 Este 0 -- -- 31
2019-03-28 16:00:00 17.8 14 Sudeste 32 Este 0 -- -- 32
2019-03-28 15:00:00 18.3 15 Sudeste 33 Este 0 -- -- 27
2019-03-28 14:00:00 17.6 15 Sudeste 33 Este 0 -- -- 31
2019-03-28 13:00:00 16.3 15 Este 35 Sudeste 0 -- -- 43
2019-03-28 12:00:00 15.6 19 Sudeste 34 Sudeste 0 -- -- 42
2019-03-28 11:00:00 14.3 17 Este 29 Sudeste 0 -- -- 52
2019-03-28 10:00:00 11.9 11 Sudeste 17 Sudeste 0 -- -- 68
2019-03-28 09:00:00 7 2 Sur 8 Nordeste 0 -- -- 80
2019-03-28 08:00:00 2.2 3 Norte 6 Noroeste 0 -- -- 92
2019-03-28 07:00:00 1.2 4 Noroeste 7 Noroeste 0 -- -- 92
2019-03-28 06:00:00 1.6 5 Noroeste 8 Noroeste 0 -- -- 88
2019-03-28 05:00:00 2 5 Noroeste 8 Norte 0 -- -- 90
2019-03-28 04:00:00 2 5 Norte 6 Norte 0 -- -- 89
2019-03-28 03:00:00 3.5 0 Calma 8 Sudoeste 0 -- -- 85
2019-03-28 02:00:00 3.2 3 Sudoeste 6 Sudoeste 0 -- -- 83
2019-03-28 01:00:00 5 3 Sur 8 Sudeste 0 -- -- 68
2019-03-28 00:00:00 8 3 Sur 14 Nordeste 0 -- -- 52
2019-03-27 23:00:00 6.4 4 Nordeste 8 Norte 0 -- -- 54
2019-03-27 22:00:00 8.4 0 Calma 5 Este 0 -- -- 50
2019-03-27 21:00:00 11.2 0 Calma 9 Sur 0 -- -- 38
2019-03-27 20:00:00 14.8 6 Nordeste 21 Este 0 -- -- 28
2019-03-27 19:00:00 17.6 11 Nordeste 26 Este 0 -- -- 23
2019-03-27 18:00:00 19 15 Este 30 Nordeste 0 -- -- 24
2019-03-27 17:00:00 19.2 18 Este 34 Nordeste 0 -- -- 25
2019-03-27 16:00:00 19.1 19 Este 37 Este 0 -- -- 26
2019-03-27 15:00:00 19 19 Este 39 Sudeste 0 -- -- 26
2019-03-27 14:00:00 18.2 14 Este 36 Este 0 -- -- 30
2019-03-27 13:00:00 16.9 14 Este 30 Este 0 -- -- 31
2019-03-27 12:00:00 15.5 12 Este 31 Este 0 -- -- 43
2019-03-27 11:00:00 14.2 14 Este 29 Este 0 -- -- 57
2019-03-27 10:00:00 12.3 12 Este 22 Este 0 -- -- 73
2019-03-27 09:00:00 9.7 7 Este 16 Este 0 -- -- 81
2019-03-27 08:00:00 6.4 3 Nordeste 6 Nordeste 0 -- -- 94
2019-03-27 07:00:00 5.4 0 Calma 5 Este 0 -- -- 95
2019-03-27 06:00:00 6 0 Calma 7 Sur 0 -- -- 88
2019-03-27 05:00:00 6 3 Norte 8 Sudeste 0 -- -- 89
2019-03-27 04:00:00 6.3 2 Este 7 Sudeste 0 -- -- 89
2019-03-27 03:00:00 8.1 0 Calma 6 Sur 0 -- -- 81
2019-03-27 02:00:00 9.1 6 Sur 10 Sur 0 -- -- 79
2019-03-27 01:00:00 7.9 0 Calma 17 Sudeste 0 -- -- 85
2019-03-27 00:00:00 8.8 3 Noroeste 5 Sur 0 -- -- 83
2019-03-26 23:00:00 10.3 5 Noroeste 10 Norte 0 -- -- 78
2019-03-26 22:00:00 11.7 8 Noroeste 12 Noroeste 0 -- -- 71
2019-03-26 21:00:00 13 4 Sudoeste 8 Sur 0 -- -- 59
2019-03-26 20:00:00 16.6 5 Sudoeste 14 Sur 0 -- -- 49
2019-03-26 19:00:00 19.4 7 Sur 24 Sur 0 -- -- 42
2019-03-26 18:00:00 21.1 15 Sur 29 Sur 0 -- -- 36
2019-03-26 17:00:00 21.7 16 Sudeste 26 Sudeste 0 -- -- 32
2019-03-26 16:00:00 22.1 12 Sudeste 27 Sudeste 0 -- -- 33
2019-03-26 15:00:00 21.9 14 Sudeste 32 Sudeste 0 -- -- 33
2019-03-26 14:00:00 21.8 14 Este 32 Sudeste 0 -- -- 30
2019-03-26 13:00:00 20.7 16 Este 33 Sudeste 0 -- -- 31
2019-03-26 12:00:00 18.6 13 Este 28 Este 0 -- -- 36
2019-03-26 11:00:00 14.8 12 Este 29 Este 0 -- -- 45
2019-03-26 10:00:00 12.7 10 Este 19 Nordeste 0 -- -- 50
2019-03-26 09:00:00 10.8 9 Este 26 Este 0 -- -- 54
2019-03-26 08:00:00 8.9 6 Nordeste 13 Nordeste 0 -- -- 66
2019-03-26 07:00:00 8.1 2 Oeste 15 Nordeste 0 -- -- 73
2019-03-26 06:00:00 8.6 4 Norte 8 Nordeste 0 -- -- 72
2019-03-26 05:00:00 7 5 Norte 10 Norte 0 -- -- 80
2019-03-26 04:00:00 8.8 2 Sudeste 10 Sur 0 -- -- 69
2019-03-26 03:00:00 9 3 Sur 7 Sur 0 -- -- 68
2019-03-26 02:00:00 9.3 0 Calma 13 Sur 0 -- -- 49
2019-03-26 01:00:00 12.5 6 Nordeste 15 Nordeste 0 -- -- 38
2019-03-26 00:00:00 13.2 9 Nordeste 14 Nordeste 0 -- -- 36
2019-03-25 23:00:00 12.6 4 Nordeste 9 Este 0 -- -- 39
2019-03-25 22:00:00 12.4 3 Nordeste 8 Este 0 -- -- 41
2019-03-25 21:00:00 15.2 3 Este 14 Este 0 -- -- 35
2019-03-25 20:00:00 17.4 9 Nordeste 20 Nordeste 0 -- -- 31
2019-03-25 19:00:00 19.6 14 Nordeste 29 Este 0 -- -- 29
2019-03-25 18:00:00 20.7 14 Este 37 Nordeste 0 -- -- 30
2019-03-25 17:00:00 21.2 15 Nordeste 34 Este 0 -- -- 31
2019-03-25 16:00:00 21.2 17 Este 39 Este 0 -- -- 33
2019-03-25 15:00:00 20.5 17 Este 35 Nordeste 0 -- -- 34
2019-03-25 14:00:00 20.1 15 Este 31 Este 0 -- -- 36
2019-03-25 13:00:00 19.3 18 Este 31 Este 0 -- -- 37
2019-03-25 12:00:00 18.3 14 Este 28 Este 0 -- -- 44
2019-03-25 11:00:00 16.4 10 Este 22 Este 0 -- -- 54
2019-03-25 10:00:00 13.6 10 Este 23 Nordeste 0 -- -- 63
2019-03-25 09:00:00 11.5 8 Nordeste 13 Nordeste 0 -- -- 71
2019-03-25 08:00:00 7.8 6 Norte 10 Norte 0 -- -- 86
2019-03-25 07:00:00 6.3 6 Norte 9 Norte 0 -- -- 87
2019-03-25 06:00:00 4.7 4 Noroeste 9 Noroeste 0 -- -- 94
2019-03-25 05:00:00 4.1 2 Noroeste 4 Noroeste 0 -- -- 95
2019-03-25 04:00:00 4.7 -- -- -- -- 0 -- -- 93
2019-03-25 03:00:00 5.1 2 Noroeste 3 Noroeste 0 -- -- 92
2019-03-25 02:00:00 5.7 0 Calma 4 Sudoeste 0 -- -- 90
2019-03-25 01:00:00 8 2 Oeste 6 Sudoeste 0 -- -- 84
2019-03-25 00:00:00 10.1 4 Sur 10 Sudoeste 0 -- -- 76